Time;durP1;ratioP1;P1;durP2;ratioP2;P2;SDS_P1;SDS_P2;PMS_P1;PMS_P2;Temp;Humidity;BMP_temperature;BMP_pressure;BME280_temperature;BME280_humidity;BME280_pressure;Samples;Min_cycle;Max_cycle;Signal;HPM_P1;HPM_P2
2023/05/18 00:00:45;;;;;;;6.78;3.35;;;;;;;;;;5092271;28;20453;-75
2023/05/18 00:03:11;;;;;;;7.65;2.85;;;;;;;;;;5092486;28;20077;-75
2023/05/18 00:05:37;;;;;;;12.40;3.50;;;;;;;;;;5092314;28;20020;-75
2023/05/18 00:08:03;;;;;;;7.60;3.42;;;;;;;;;;5088100;28;20494;-75
2023/05/18 00:10:29;;;;;;;8.63;3.75;;;;;;;;;;5090685;28;20032;-75
2023/05/18 00:12:55;;;;;;;6.95;2.60;;;;;;;;;;5084251;28;20028;-75
2023/05/18 00:15:21;;;;;;;8.95;3.80;;;;;;;;;;5092064;28;20024;-75
2023/05/18 00:17:49;;;;;;;9.20;3.25;;;;;;;;;;5091052;28;20066;-75
2023/05/18 00:20:17;;;;;;;6.60;3.72;;;;;;;;;;5092155;28;20056;-75
2023/05/18 00:22:43;;;;;;;9.13;3.50;;;;;;;;;;5092431;28;20051;-75
2023/05/18 00:25:09;;;;;;;8.98;3.45;;;;;;;;;;5074553;28;20063;-75
2023/05/18 00:27:35;;;;;;;14.60;3.60;;;;;;;;;;5077242;28;20032;-75
2023/05/18 00:30:01;;;;;;;7.07;3.03;;;;;;;;;;5093839;28;20028;-75
2023/05/18 00:32:27;;;;;;;11.30;3.35;;;;;;;;;;5096653;28;20103;-75
2023/05/18 00:34:53;;;;;;;8.73;3.65;;;;;;;;;;5096323;28;20028;-75
2023/05/18 00:37:20;;;;;;;7.47;3.42;;;;;;;;;;5096186;28;20020;-75
2023/05/18 00:39:46;;;;;;;6.45;2.90;;;;;;;;;;5096334;28;20028;-75
2023/05/18 00:42:12;;;;;;;10.45;3.65;;;;;;;;;;5095684;28;20028;-75
2023/05/18 00:44:38;;;;;;;8.80;3.97;;;;;;;;;;5096058;28;20036;-75
2023/05/18 00:47:04;;;;;;;7.75;4.18;;;;;;;;;;5077786;28;20107;-75
2023/05/18 00:49:30;;;;;;;7.53;3.38;;;;;;;;;;5095988;28;20507;-75
2023/05/18 00:51:56;;;;;;;7.03;3.80;;;;;;;;;;5096038;28;20082;-75
2023/05/18 00:54:22;;;;;;;9.15;3.47;;;;;;;;;;5095865;28;20100;-75
2023/05/18 00:56:49;;;;;;;7.15;3.72;;;;;;;;;;5096193;28;20024;-75
2023/05/18 00:59:15;;;;;;;5.72;3.10;;;;;;;;;;5095732;28;20036;-75
2023/05/18 01:01:45;;;;;;;8.95;3.30;;;;;;;;;;5095947;28;20063;-76
2023/05/18 01:04:14;;;;;;;6.53;3.17;;;;;;;;;;5095765;28;20490;-75
2023/05/18 01:06:41;;;;;;;10.48;3.50;;;;;;;;;;5095702;28;20024;-75
2023/05/18 01:09:08;;;;;;;10.52;3.88;;;;;;;;;;5095662;28;20024;-75
2023/05/18 01:11:49;;;;;;;8.48;3.08;;;;;;;;;;5095557;28;20019;-75
2023/05/18 01:14:15;;;;;;;9.75;3.78;;;;;;;;;;5095692;28;20032;-75
2023/05/18 01:16:44;;;;;;;5.22;2.70;;;;;;;;;;5095491;28;20042;-75
2023/05/18 01:19:12;;;;;;;4.95;2.58;;;;;;;;;;5095363;28;20040;-75
2023/05/18 01:21:50;;;;;;;7.40;3.45;;;;;;;;;;5094214;28;20055;-75
2023/05/18 01:24:41;;;;;;;11.32;3.53;;;;;;;;;;5095425;28;20032;-75
2023/05/18 01:27:07;;;;;;;8.65;3.15;;;;;;;;;;5095485;28;20012;-75
2023/05/18 01:29:34;;;;;;;9.02;3.78;;;;;;;;;;5095412;28;20028;-75
2023/05/18 01:31:59;;;;;;;7.90;3.60;;;;;;;;;;5085477;28;20033;-75
2023/05/18 01:34:26;;;;;;;5.22;3.10;;;;;;;;;;5077902;28;20080;-75
2023/05/18 01:36:52;;;;;;;11.68;3.75;;;;;;;;;;5095195;28;20489;-75
2023/05/18 01:39:18;;;;;;;7.03;3.58;;;;;;;;;;5095049;28;20036;-75
2023/05/18 01:42:06;;;;;;;5.93;3.30;;;;;;;;;;5093867;28;20024;-75
2023/05/18 01:44:36;;;;;;;8.60;3.80;;;;;;;;;;5095112;28;20053;-75
2023/05/18 01:47:15;;;;;;;9.50;3.50;;;;;;;;;;5095163;28;20073;-75
2023/05/18 01:49:43;;;;;;;7.90;3.72;;;;;;;;;;5074759;28;20043;-75
2023/05/18 01:52:11;;;;;;;6.63;3.55;;;;;;;;;;5088640;28;20031;-75
2023/05/18 01:54:41;;;;;;;7.25;3.08;;;;;;;;;;5094734;28;20024;-75
2023/05/18 01:57:07;;;;;;;5.38;2.85;;;;;;;;;;5094920;28;20025;-75
2023/05/18 01:59:34;;;;;;;7.85;3.70;;;;;;;;;;5094743;28;20386;-75
2023/05/18 02:02:00;;;;;;;6.53;4.05;;;;;;;;;;5088747;28;20024;-75
2023/05/18 02:04:27;;;;;;;7.07;3.72;;;;;;;;;;5094520;28;20099;-75
2023/05/18 02:06:54;;;;;;;5.25;3.65;;;;;;;;;;5094861;28;20028;-75
2023/05/18 02:09:20;;;;;;;6.78;3.78;;;;;;;;;;5094611;28;20024;-75
2023/05/18 02:11:46;;;;;;;11.65;3.70;;;;;;;;;;5094435;28;20028;-75
2023/05/18 02:14:12;;;;;;;7.55;3.65;;;;;;;;;;5094491;28;20052;-75
2023/05/18 02:16:38;;;;;;;9.68;3.47;;;;;;;;;;5094310;28;20055;-75
2023/05/18 02:19:04;;;;;;;5.95;3.63;;;;;;;;;;5087938;28;20036;-75
2023/05/18 02:21:33;;;;;;;6.13;3.58;;;;;;;;;;5088641;28;20052;-75
2023/05/18 02:23:59;;;;;;;10.07;3.90;;;;;;;;;;5081548;28;20016;-75
2023/05/18 02:26:26;;;;;;;8.00;3.78;;;;;;;;;;5094473;28;20016;-75
2023/05/18 02:28:52;;;;;;;6.97;3.63;;;;;;;;;;5094325;28;20454;-75
2023/05/18 02:31:18;;;;;;;8.50;4.20;;;;;;;;;;5094200;28;20027;-75
2023/05/18 02:33:44;;;;;;;11.05;3.80;;;;;;;;;;5094260;28;20387;-75
2023/05/18 02:36:13;;;;;;;8.60;4.40;;;;;;;;;;5093961;28;20039;-75
2023/05/18 02:38:41;;;;;;;10.02;4.05;;;;;;;;;;5093875;28;20020;-75
2023/05/18 02:41:07;;;;;;;12.18;4.38;;;;;;;;;;5094156;28;20028;-75
2023/05/18 02:43:33;;;;;;;9.52;4.80;;;;;;;;;;5093898;28;20026;-75
2023/05/18 02:45:59;;;;;;;9.23;3.90;;;;;;;;;;5093672;28;20031;-75
2023/05/18 02:48:25;;;;;;;6.13;3.83;;;;;;;;;;5093938;28;20027;-75
2023/05/18 02:50:52;;;;;;;10.18;4.68;;;;;;;;;;5090596;28;20040;-75
2023/05/18 02:53:18;;;;;;;6.80;3.63;;;;;;;;;;5082899;28;20027;-75
2023/05/18 02:55:45;;;;;;;9.75;4.07;;;;;;;;;;5093123;28;20393;-75
2023/05/18 02:58:12;;;;;;;8.05;3.95;;;;;;;;;;5093741;28;20070;-75
2023/05/18 03:00:39;;;;;;;8.80;4.32;;;;;;;;;;5093726;28;20451;-75
2023/05/18 03:03:09;;;;;;;9.25;3.80;;;;;;;;;;5093391;28;20032;-75
2023/05/18 03:05:38;;;;;;;9.00;4.55;;;;;;;;;;5093688;28;20020;-75
2023/05/18 03:08:04;;;;;;;12.32;5.10;;;;;;;;;;5093363;28;20020;-75
2023/05/18 03:10:30;;;;;;;14.73;4.45;;;;;;;;;;5093278;28;20503;-75
2023/05/18 03:12:56;;;;;;;11.38;4.95;;;;;;;;;;5093191;28;20024;-75
2023/05/18 03:15:22;;;;;;;12.20;4.05;;;;;;;;;;5093252;28;20063;-75
2023/05/18 03:17:50;;;;;;;9.65;4.55;;;;;;;;;;5093057;28;20103;-75
2023/05/18 03:20:16;;;;;;;7.32;4.35;;;;;;;;;;5091771;28;20494;-75
2023/05/18 03:22:42;;;;;;;7.85;4.95;;;;;;;;;;5093293;28;20028;-75
2023/05/18 03:25:08;;;;;;;9.52;5.15;;;;;;;;;;5093118;28;20035;-75
2023/05/18 03:27:36;;;;;;;13.70;5.88;;;;;;;;;;5092890;28;20487;-75
2023/05/18 03:30:03;;;;;;;9.48;4.80;;;;;;;;;;5093206;28;20035;-75
2023/05/18 03:32:30;;;;;;;10.18;5.07;;;;;;;;;;5093203;28;20115;-76
2023/05/18 03:35:07;;;;;;;9.98;4.85;;;;;;;;;;5092764;28;20027;-75
2023/05/18 03:37:33;;;;;;;9.88;4.18;;;;;;;;;;5093112;28;20103;-75
2023/05/18 03:40:00;;;;;;;7.30;4.10;;;;;;;;;;5092520;28;20108;-75
2023/05/18 03:42:26;;;;;;;8.20;4.18;;;;;;;;;;5089710;28;20065;-75
2023/05/18 03:44:52;;;;;;;11.55;4.45;;;;;;;;;;5079010;28;20024;-76
2023/05/18 03:47:18;;;;;;;8.80;4.80;;;;;;;;;;5092627;28;20371;-75
2023/05/18 03:49:44;;;;;;;10.68;4.90;;;;;;;;;;5092706;28;20031;-75
2023/05/18 03:52:10;;;;;;;11.27;4.63;;;;;;;;;;5092693;28;20443;-76
2023/05/18 03:54:36;;;;;;;7.85;4.47;;;;;;;;;;5090673;28;20034;-75
2023/05/18 03:57:02;;;;;;;6.47;4.45;;;;;;;;;;5092465;28;20020;-75
2023/05/18 03:59:28;;;;;;;7.32;5.05;;;;;;;;;;5064994;28;20024;-75
2023/05/18 04:01:54;;;;;;;8.73;4.38;;;;;;;;;;5092463;28;20025;-76
2023/05/18 04:04:22;;;;;;;9.25;4.90;;;;;;;;;;5091699;28;20028;-75
2023/05/18 04:06:50;;;;;;;7.95;4.10;;;;;;;;;;5092660;28;20634;-75
2023/05/18 04:09:16;;;;;;;7.25;4.45;;;;;;;;;;5092633;28;20020;-76
2023/05/18 04:11:42;;;;;;;9.70;4.85;;;;;;;;;;5074157;28;20433;-75
2023/05/18 04:14:09;;;;;;;8.07;4.22;;;;;;;;;;5092215;28;20439;-76
2023/05/18 04:16:35;;;;;;;7.13;4.03;;;;;;;;;;5092425;28;20016;-75
2023/05/18 04:19:03;;;;;;;9.23;4.20;;;;;;;;;;5086208;28;20490;-75
2023/05/18 04:21:35;;;;;;;11.27;4.32;;;;;;;;;;5086311;28;20051;-75
2023/05/18 04:24:05;;;;;;;10.20;4.18;;;;;;;;;;5092245;28;20020;-75
2023/05/18 04:26:35;;;;;;;9.57;4.60;;;;;;;;;;5087527;28;20016;-75
2023/05/18 04:29:01;;;;;;;17.93;5.20;;;;;;;;;;5072950;28;20032;-76
2023/05/18 04:31:28;;;;;;;6.80;4.13;;;;;;;;;;5092034;28;20024;-75
2023/05/18 04:33:54;;;;;;;8.15;4.28;;;;;;;;;;5092292;28;20103;-76
2023/05/18 04:36:24;;;;;;;8.00;4.35;;;;;;;;;;5095247;28;20020;-75
2023/05/18 04:38:50;;;;;;;6.45;4.18;;;;;;;;;;5096798;28;20020;-75
2023/05/18 04:41:19;;;;;;;15.20;5.28;;;;;;;;;;5091948;28;20481;-75
2023/05/18 04:43:46;;;;;;;7.20;4.40;;;;;;;;;;5092511;28;20023;-76
2023/05/18 04:46:20;;;;;;;7.32;4.50;;;;;;;;;;5092235;28;20008;-76
2023/05/18 04:48:51;;;;;;;9.13;5.10;;;;;;;;;;5092119;28;20564;-75
2023/05/18 04:51:20;;;;;;;7.95;3.95;;;;;;;;;;5092352;28;20393;-75
2023/05/18 04:53:48;;;;;;;8.05;4.10;;;;;;;;;;5090980;28;20027;-75
2023/05/18 04:56:14;;;;;;;7.63;4.20;;;;;;;;;;5080500;28;20054;-76
2023/05/18 04:58:44;;;;;;;7.70;3.78;;;;;;;;;;5092110;28;20032;-76
2023/05/18 05:01:10;;;;;;;9.18;3.90;;;;;;;;;;5092490;28;20085;-76
2023/05/18 05:03:37;;;;;;;8.00;3.88;;;;;;;;;;5092995;28;20028;-76
2023/05/18 05:06:03;;;;;;;9.73;4.47;;;;;;;;;;5074360;28;20024;-76
2023/05/18 05:08:29;;;;;;;9.88;3.53;;;;;;;;;;5092148;28;20081;-76
2023/05/18 05:10:55;;;;;;;6.75;3.55;;;;;;;;;;5087100;28;20024;-75
2023/05/18 05:13:21;;;;;;;6.80;3.95;;;;;;;;;;5085392;28;20108;-76
2023/05/18 05:15:47;;;;;;;10.95;3.63;;;;;;;;;;5091644;28;20027;-75
2023/05/18 05:18:13;;;;;;;8.93;3.42;;;;;;;;;;5095539;28;20056;-75
2023/05/18 05:20:39;;;;;;;8.82;3.50;;;;;;;;;;5094956;28;20088;-75
2023/05/18 05:23:05;;;;;;;5.03;3.25;;;;;;;;;;5095446;28;20024;-75
2023/05/18 05:25:31;;;;;;;6.47;2.88;;;;;;;;;;5095284;28;20451;-75
2023/05/18 05:27:57;;;;;;;7.18;3.40;;;;;;;;;;5077145;28;20111;-75
2023/05/18 05:30:23;;;;;;;7.75;3.20;;;;;;;;;;5094479;28;20028;-75
2023/05/18 05:32:49;;;;;;;8.20;3.40;;;;;;;;;;5095141;28;20028;-75
2023/05/18 05:35:15;;;;;;;7.07;3.53;;;;;;;;;;5094998;28;20036;-75
2023/05/18 05:37:41;;;;;;;8.30;3.47;;;;;;;;;;5095104;28;20028;-75
2023/05/18 05:40:08;;;;;;;6.32;3.17;;;;;;;;;;5095029;28;20384;-75
2023/05/18 05:42:34;;;;;;;6.85;3.00;;;;;;;;;;5095165;28;20016;-75
2023/05/18 05:45:00;;;;;;;7.25;3.47;;;;;;;;;;5095447;28;20051;-74
2023/05/18 05:47:32;;;;;;;6.63;2.78;;;;;;;;;;5095420;28;20097;-75
2023/05/18 05:49:58;;;;;;;7.75;3.10;;;;;;;;;;5094964;28;20558;-75
2023/05/18 05:52:27;;;;;;;6.55;2.75;;;;;;;;;;5076391;28;20110;-74
2023/05/18 05:54:53;;;;;;;6.70;2.78;;;;;;;;;;5090806;28;20024;-74
2023/05/18 05:57:20;;;;;;;8.10;2.70;;;;;;;;;;5095579;28;20031;-74
2023/05/18 05:59:45;;;;;;;7.10;2.88;;;;;;;;;;5094613;28;20043;-74
2023/05/18 06:02:11;;;;;;;12.50;3.00;;;;;;;;;;5094646;28;20027;-75
2023/05/18 06:04:38;;;;;;;7.45;2.95;;;;;;;;;;5094557;28;20028;-75
2023/05/18 06:07:05;;;;;;;8.60;2.67;;;;;;;;;;5109819;28;20026;-75
2023/05/18 06:09:31;;;;;;;5.40;2.53;;;;;;;;;;5105925;28;20039;-75
2023/05/18 06:11:57;;;;;;;6.00;2.40;;;;;;;;;;5093789;28;20454;-75
2023/05/18 06:14:23;;;;;;;8.90;2.75;;;;;;;;;;5089042;28;20031;-75
2023/05/18 06:16:49;;;;;;;4.43;2.00;;;;;;;;;;5098613;28;20024;-74
2023/05/18 06:19:15;;;;;;;6.80;2.63;;;;;;;;;;5106175;28;20036;-74
2023/05/18 06:21:41;;;;;;;5.97;2.55;;;;;;;;;;5108247;28;20382;-75
2023/05/18 06:24:07;;;;;;;9.10;2.78;;;;;;;;;;5094098;28;20533;-75
2023/05/18 06:26:33;;;;;;;4.95;2.42;;;;;;;;;;5091115;28;20390;-75
2023/05/18 06:28:59;;;;;;;4.72;2.67;;;;;;;;;;5093345;28;20493;-75
2023/05/18 06:31:26;;;;;;;7.57;2.88;;;;;;;;;;5094745;28;20049;-75
2023/05/18 06:33:51;;;;;;;11.10;2.92;;;;;;;;;;5088525;28;20029;-75
2023/05/18 06:36:17;;;;;;;6.38;2.70;;;;;;;;;;5093276;28;20107;-75
2023/05/18 06:38:43;;;;;;;5.18;2.30;;;;;;;;;;5090847;28;20391;-75
2023/05/18 06:41:10;;;;;;;6.35;2.28;;;;;;;;;;5078176;28;20028;-75
2023/05/18 06:43:36;;;;;;;4.95;2.38;;;;;;;;;;5094384;28;20032;-75
2023/05/18 06:46:02;;;;;;;4.35;1.75;;;;;;;;;;5093882;28;20043;-75
2023/05/18 06:48:28;;;;;;;5.90;2.28;;;;;;;;;;5093744;28;20020;-75
2023/05/18 06:50:54;;;;;;;3.75;2.00;;;;;;;;;;5093656;28;20051;-75
2023/05/18 06:53:22;;;;;;;4.47;2.30;;;;;;;;;;5093565;28;20493;-75
2023/05/18 06:55:48;;;;;;;3.95;2.17;;;;;;;;;;5088473;28;20020;-75
2023/05/18 06:58:14;;;;;;;5.55;2.17;;;;;;;;;;5093371;28;20020;-75
2023/05/18 07:00:40;;;;;;;6.97;1.92;;;;;;;;;;5093208;28;20090;-75
2023/05/18 07:03:07;;;;;;;5.95;2.20;;;;;;;;;;5093431;28;20020;-75
2023/05/18 07:05:33;;;;;;;9.23;2.85;;;;;;;;;;5091428;28;20016;-75
2023/05/18 07:07:59;;;;;;;4.15;2.08;;;;;;;;;;5082228;28;20371;-75
2023/05/18 07:10:25;;;;;;;5.60;2.20;;;;;;;;;;5093411;28;20024;-75
2023/05/18 07:12:51;;;;;;;9.38;3.13;;;;;;;;;;5093204;28;20024;-74
2023/05/18 07:15:17;;;;;;;9.20;2.30;;;;;;;;;;5093249;28;20097;-75
2023/05/18 07:17:43;;;;;;;3.65;2.00;;;;;;;;;;5085428;28;20029;-75
2023/05/18 07:20:10;;;;;;;5.80;2.33;;;;;;;;;;5091776;28;20109;-75
2023/05/18 07:22:36;;;;;;;6.40;2.28;;;;;;;;;;5072753;28;20081;-75
2023/05/18 07:25:02;;;;;;;7.43;2.47;;;;;;;;;;5089585;28;20394;-75
2023/05/18 07:27:28;;;;;;;5.85;2.22;;;;;;;;;;5093040;28;20039;-75
2023/05/18 07:29:54;;;;;;;7.57;2.67;;;;;;;;;;5079823;28;20021;-75
2023/05/18 07:32:20;;;;;;;5.70;1.90;;;;;;;;;;5084942;28;20073;-75
2023/05/18 07:34:46;;;;;;;5.68;2.47;;;;;;;;;;5090198;28;20077;-75
2023/05/18 07:37:13;;;;;;;5.68;1.77;;;;;;;;;;5092959;28;20020;-76
2023/05/18 07:39:39;;;;;;;6.28;2.15;;;;;;;;;;5091916;28;20506;-76
2023/05/18 07:42:05;;;;;;;4.88;1.80;;;;;;;;;;5092860;28;20119;-76
2023/05/18 07:44:31;;;;;;;6.00;1.80;;;;;;;;;;5092986;28;20019;-76
2023/05/18 07:46:57;;;;;;;8.57;2.13;;;;;;;;;;5092909;28;20122;-76
2023/05/18 07:49:24;;;;;;;5.60;1.50;;;;;;;;;;5076476;28;20029;-76
2023/05/18 07:51:56;;;;;;;4.85;1.70;;;;;;;;;;5093076;28;20044;-76
2023/05/18 07:54:22;;;;;;;4.88;1.67;;;;;;;;;;5093141;28;20490;-76
2023/05/18 07:56:48;;;;;;;7.82;2.03;;;;;;;;;;5092535;28;20022;-76
2023/05/18 07:59:14;;;;;;;4.80;2.05;;;;;;;;;;5092509;28;20644;-76
2023/05/18 08:01:40;;;;;;;4.60;1.80;;;;;;;;;;5093029;28;20449;-76
2023/05/18 08:04:06;;;;;;;6.38;1.33;;;;;;;;;;5092430;28;20031;-76
2023/05/18 08:06:32;;;;;;;3.75;1.40;;;;;;;;;;5092106;28;20020;-76
2023/05/18 08:08:58;;;;;;;3.53;1.83;;;;;;;;;;5091785;28;20031;-76
2023/05/18 08:11:25;;;;;;;3.80;1.23;;;;;;;;;;5091758;28;20027;-76
2023/05/18 08:13:51;;;;;;;6.28;1.63;;;;;;;;;;5073548;28;20039;-76
2023/05/18 08:16:17;;;;;;;4.95;1.80;;;;;;;;;;5091611;28;20031;-76
2023/05/18 08:18:43;;;;;;;5.55;1.85;;;;;;;;;;5092151;28;20039;-76
2023/05/18 08:21:09;;;;;;;7.55;1.77;;;;;;;;;;5090868;28;20060;-76
2023/05/18 08:23:35;;;;;;;3.22;1.40;;;;;;;;;;5092322;28;20095;-76
2023/05/18 08:26:02;;;;;;;6.75;2.05;;;;;;;;;;5092546;28;20016;-76
2023/05/18 08:28:28;;;;;;;6.85;1.77;;;;;;;;;;5092253;28;20101;-76
2023/05/18 08:30:55;;;;;;;5.00;1.42;;;;;;;;;;5092345;28;20025;-76
2023/05/18 08:33:25;;;;;;;6.55;1.60;;;;;;;;;;5060850;28;20039;-76
2023/05/18 08:35:52;;;;;;;6.10;2.05;;;;;;;;;;5082019;28;20463;-76
2023/05/18 08:38:18;;;;;;;5.50;1.60;;;;;;;;;;5089719;28;20016;-76
2023/05/18 08:40:51;;;;;;;2.70;1.45;;;;;;;;;;5091986;28;20028;-76
2023/05/18 08:43:22;;;;;;;5.07;1.77;;;;;;;;;;5092108;28;20032;-75
2023/05/18 08:46:06;;;;;;;6.68;1.90;;;;;;;;;;5088837;28;20119;-75
2023/05/18 08:48:33;;;;;;;4.78;1.70;;;;;;;;;;5092070;28;20418;-74
2023/05/18 08:51:00;;;;;;;4.93;1.80;;;;;;;;;;5089962;28;20035;-74
2023/05/18 08:53:26;;;;;;;5.03;1.85;;;;;;;;;;5075775;28;20502;-74
2023/05/18 08:55:53;;;;;;;7.03;1.80;;;;;;;;;;5094526;28;20031;-75
2023/05/18 08:58:20;;;;;;;5.10;1.30;;;;;;;;;;5096162;28;20024;-75
2023/05/18 09:00:46;;;;;;;4.75;1.85;;;;;;;;;;5096138;28;20442;-75
2023/05/18 09:03:13;;;;;;;5.82;1.60;;;;;;;;;;5096182;28;20378;-75
2023/05/18 09:05:40;;;;;;;4.15;1.52;;;;;;;;;;5096094;28;20020;-75
2023/05/18 09:08:07;;;;;;;3.10;1.70;;;;;;;;;;5096027;28;20447;-75
2023/05/18 09:10:39;;;;;;;3.95;1.63;;;;;;;;;;5095743;28;20082;-75
2023/05/18 09:13:06;;;;;;;6.20;2.00;;;;;;;;;;5095615;28;20115;-75
2023/05/18 09:15:34;;;;;;;4.00;1.50;;;;;;;;;;5095743;28;20493;-75
2023/05/18 09:18:00;;;;;;;5.10;2.05;;;;;;;;;;5095965;28;20020;-75
2023/05/18 09:20:27;;;;;;;6.30;1.98;;;;;;;;;;5094333;28;20059;-75
2023/05/18 09:22:54;;;;;;;6.55;1.50;;;;;;;;;;5095886;28;20028;-75
2023/05/18 09:25:20;;;;;;;4.97;1.52;;;;;;;;;;5095530;28;20024;-75
2023/05/18 09:27:47;;;;;;;4.90;1.90;;;;;;;;;;5095476;28;20476;-75
2023/05/18 09:30:13;;;;;;;6.45;2.30;;;;;;;;;;5095217;28;20503;-75
2023/05/18 09:32:40;;;;;;;6.20;2.85;;;;;;;;;;5095421;28;20646;-75
2023/05/18 09:35:07;;;;;;;5.32;1.80;;;;;;;;;;5090827;28;20021;-75
2023/05/18 09:37:33;;;;;;;3.75;1.77;;;;;;;;;;5095264;28;20047;-75
2023/05/18 09:40:00;;;;;;;4.28;2.40;;;;;;;;;;5095222;28;20032;-74
2023/05/18 09:42:27;;;;;;;3.88;1.80;;;;;;;;;;5095192;28;20591;-74
2023/05/18 09:44:54;;;;;;;3.70;1.90;;;;;;;;;;5095143;28;20024;-74
2023/05/18 09:47:20;;;;;;;6.00;2.13;;;;;;;;;;5095261;28;20024;-75
2023/05/18 09:49:46;;;;;;;3.97;1.80;;;;;;;;;;5095126;28;20032;-74
2023/05/18 09:52:12;;;;;;;7.30;2.80;;;;;;;;;;5094895;28;20024;-74
2023/05/18 09:54:38;;;;;;;9.77;2.40;;;;;;;;;;5094936;28;20070;-75
2023/05/18 09:57:04;;;;;;;2.50;1.50;;;;;;;;;;5094833;28;20028;-75
2023/05/18 09:59:32;;;;;;;4.63;1.70;;;;;;;;;;5094453;28;20016;-75
2023/05/18 10:02:04;;;;;;;2.90;1.73;;;;;;;;;;5094245;28;20115;-75
2023/05/18 10:04:40;;;;;;;4.68;2.00;;;;;;;;;;5094667;28;20459;-76
2023/05/18 10:07:11;;;;;;;5.60;1.90;;;;;;;;;;5076389;28;20070;-76
2023/05/18 10:09:37;;;;;;;5.95;2.40;;;;;;;;;;5095073;28;20367;-77
2023/05/18 10:12:03;;;;;;;5.75;1.70;;;;;;;;;;5095012;28;20099;-76
2023/05/18 10:14:35;;;;;;;4.53;2.08;;;;;;;;;;5076203;28;20027;-76
2023/05/18 10:17:03;;;;;;;6.78;2.10;;;;;;;;;;5073016;28;20020;-76
2023/05/18 10:19:29;;;;;;;4.22;1.90;;;;;;;;;;5076156;28;20028;-76
2023/05/18 10:21:56;;;;;;;3.67;1.60;;;;;;;;;;5093567;28;20044;-76
2023/05/18 10:24:26;;;;;;;4.32;2.25;;;;;;;;;;5093393;28;20627;-76
2023/05/18 10:26:52;;;;;;;5.82;2.05;;;;;;;;;;5074380;28;20036;-76
2023/05/18 10:29:18;;;;;;;6.20;2.53;;;;;;;;;;5074560;28;20029;-77
2023/05/18 10:31:45;;;;;;;4.60;2.55;;;;;;;;;;5094135;28;20024;-76
2023/05/18 10:34:11;;;;;;;4.47;2.45;;;;;;;;;;5094436;28;20048;-77
2023/05/18 10:36:38;;;;;;;4.35;2.30;;;;;;;;;;5094242;28;20400;-76
2023/05/18 10:39:05;;;;;;;5.07;1.95;;;;;;;;;;5083437;28;20016;-77
2023/05/18 10:41:34;;;;;;;4.03;1.65;;;;;;;;;;5094152;28;20020;-77
2023/05/18 10:44:02;;;;;;;8.00;2.70;;;;;;;;;;5073829;28;20111;-77
2023/05/18 10:46:29;;;;;;;2.75;1.90;;;;;;;;;;5090549;28;20660;-77
2023/05/18 10:48:55;;;;;;;6.18;2.50;;;;;;;;;;5093891;28;20098;-77
2023/05/18 10:51:21;;;;;;;5.93;2.55;;;;;;;;;;5075615;28;20132;-77
2023/05/18 10:53:47;;;;;;;8.98;3.00;;;;;;;;;;5093390;28;20420;-76
2023/05/18 10:56:16;;;;;;;5.65;3.00;;;;;;;;;;5074089;28;20395;-76
2023/05/18 10:58:43;;;;;;;6.15;2.75;;;;;;;;;;5073482;28;20024;-77
2023/05/18 11:01:10;;;;;;;6.90;2.80;;;;;;;;;;5088473;28;20394;-76
2023/05/18 11:03:37;;;;;;;6.85;2.42;;;;;;;;;;5093636;28;20072;-77
2023/05/18 11:06:06;;;;;;;3.58;2.10;;;;;;;;;;5093475;28;20417;-76
2023/05/18 11:08:33;;;;;;;4.10;2.58;;;;;;;;;;5093545;28;20055;-76
2023/05/18 11:11:03;;;;;;;7.00;2.67;;;;;;;;;;5093622;28;20017;-77
2023/05/18 11:13:30;;;;;;;6.00;2.53;;;;;;;;;;5075294;28;20024;-77
2023/05/18 11:15:58;;;;;;;6.82;2.67;;;;;;;;;;5093492;28;20032;-77
2023/05/18 11:18:39;;;;;;;4.32;2.67;;;;;;;;;;5074988;28;20491;-77
2023/05/18 11:21:25;;;;;;;5.00;2.85;;;;;;;;;;5092776;28;20044;-77
2023/05/18 11:24:26;;;;;;;6.35;2.90;;;;;;;;;;5092972;28;20036;-77
2023/05/18 11:26:54;;;;;;;7.47;2.70;;;;;;;;;;4990954;28;20027;-77
2023/05/18 11:29:21;;;;;;;10.23;3.10;;;;;;;;;;5074001;28;20085;-77
2023/05/18 11:31:49;;;;;;;7.28;2.90;;;;;;;;;;5074564;28;20066;-77
2023/05/18 11:34:35;;;;;;;6.65;2.63;;;;;;;;;;5093077;28;20059;-77
2023/05/18 11:37:01;;;;;;;6.72;2.50;;;;;;;;;;5093274;28;20419;-77
2023/05/18 11:39:27;;;;;;;6.45;2.50;;;;;;;;;;5092907;28;20039;-77
2023/05/18 11:42:00;;;;;;;5.82;2.70;;;;;;;;;;5092809;28;20103;-77
2023/05/18 11:44:27;;;;;;;6.25;2.67;;;;;;;;;;5092930;28;20077;-77
2023/05/18 11:47:04;;;;;;;4.85;2.58;;;;;;;;;;5092928;28;20052;-77
2023/05/18 11:49:30;;;;;;;9.70;3.03;;;;;;;;;;5092854;28;20024;-76
2023/05/18 11:51:57;;;;;;;6.53;3.10;;;;;;;;;;5092361;28;20073;-76
2023/05/18 11:54:24;;;;;;;9.73;2.90;;;;;;;;;;5092743;28;20052;-76
2023/05/18 11:56:51;;;;;;;5.70;2.50;;;;;;;;;;5093097;28;20020;-76
2023/05/18 11:59:17;;;;;;;4.90;2.33;;;;;;;;;;5092674;28;20028;-76
2023/05/18 12:01:43;;;;;;;4.38;2.40;;;;;;;;;;5092581;28;20032;-76
2023/05/18 12:04:10;;;;;;;6.45;2.70;;;;;;;;;;5092584;28;20024;-76
2023/05/18 12:06:37;;;;;;;5.50;2.53;;;;;;;;;;5092662;28;20122;-76
2023/05/18 12:09:04;;;;;;;8.07;2.70;;;;;;;;;;5092402;28;20024;-76
2023/05/18 12:11:31;;;;;;;5.40;2.35;;;;;;;;;;5092734;28;20111;-76
2023/05/18 12:13:57;;;;;;;6.18;2.60;;;;;;;;;;5092676;28;20052;-76
2023/05/18 12:16:23;;;;;;;5.88;2.83;;;;;;;;;;5092402;28;20024;-77
2023/05/18 12:18:50;;;;;;;3.10;2.25;;;;;;;;;;5092800;28;20142;-76
2023/05/18 12:21:23;;;;;;;6.28;3.05;;;;;;;;;;5070482;28;20072;-76
2023/05/18 12:23:57;;;;;;;4.18;2.40;;;;;;;;;;5072163;28;20491;-76
2023/05/18 12:26:24;;;;;;;5.45;2.25;;;;;;;;;;5071626;28;20040;-76
2023/05/18 12:28:52;;;;;;;7.10;2.75;;;;;;;;;;5052314;28;20033;-76
2023/05/18 12:31:18;;;;;;;5.07;2.67;;;;;;;;;;5052175;28;20107;-76
2023/05/18 12:33:44;;;;;;;5.95;2.60;;;;;;;;;;5054321;28;20349;-76
2023/05/18 12:36:10;;;;;;;6.53;2.83;;;;;;;;;;5062911;28;20028;-76
2023/05/18 12:38:36;;;;;;;4.35;2.30;;;;;;;;;;5068034;28;20017;-76
2023/05/18 12:41:03;;;;;;;3.45;2.40;;;;;;;;;;5072186;28;20110;-76
2023/05/18 12:43:33;;;;;;;5.07;2.25;;;;;;;;;;5072412;28;20375;-76
2023/05/18 12:46:01;;;;;;;5.97;2.67;;;;;;;;;;5072409;28;20074;-76
2023/05/18 12:48:28;;;;;;;4.78;2.60;;;;;;;;;;5054345;28;20639;-77
2023/05/18 12:50:54;;;;;;;6.07;2.42;;;;;;;;;;5072347;28;20598;-77
2023/05/18 12:53:20;;;;;;;7.25;2.30;;;;;;;;;;5072189;28;20020;-76
2023/05/18 12:55:56;;;;;;;5.68;2.20;;;;;;;;;;5071893;28;20036;-76
2023/05/18 12:58:22;;;;;;;5.47;2.30;;;;;;;;;;5072255;28;20016;-76
2023/05/18 13:00:48;;;;;;;6.88;2.40;;;;;;;;;;5071798;28;20116;-76
2023/05/18 13:03:15;;;;;;;7.30;1.75;;;;;;;;;;5071758;28;20110;-76
2023/05/18 13:05:43;;;;;;;3.20;1.90;;;;;;;;;;5072145;28;20035;-77
2023/05/18 13:08:13;;;;;;;7.32;2.13;;;;;;;;;;5072057;28;20012;-76
2023/05/18 13:10:42;;;;;;;10.48;3.60;;;;;;;;;;5072732;28;20035;-84
2023/05/18 13:13:08;;;;;;;5.20;1.90;;;;;;;;;;5074925;28;20039;-84
2023/05/18 13:15:38;;;;;;;3.95;1.73;;;;;;;;;;5077455;28;20029;-84
2023/05/18 13:18:08;;;;;;;4.05;2.03;;;;;;;;;;5076905;28;20021;-83
2023/05/18 13:20:40;;;;;;;5.57;2.50;;;;;;;;;;5078075;28;20106;-83
2023/05/18 13:23:07;;;;;;;5.55;2.13;;;;;;;;;;5098930;28;20031;-83
2023/05/18 13:25:33;;;;;;;4.75;2.13;;;;;;;;;;5078297;28;20077;-83
2023/05/18 13:27:59;;;;;;;3.70;1.98;;;;;;;;;;5083531;28;20032;-83
2023/05/18 13:30:25;;;;;;;4.38;1.95;;;;;;;;;;5097305;28;20046;-83
2023/05/18 13:32:51;;;;;;;5.80;2.38;;;;;;;;;;5080817;28;20114;-81
2023/05/18 13:35:18;;;;;;;7.75;2.45;;;;;;;;;;5095015;28;20016;-81
2023/05/18 13:37:45;;;;;;;4.53;2.22;;;;;;;;;;5077379;28;20032;-80
2023/05/18 13:40:15;;;;;;;2.53;1.30;;;;;;;;;;5079870;28;20020;-83
2023/05/18 13:42:41;;;;;;;8.75;1.95;;;;;;;;;;5091371;28;20046;-83
2023/05/18 13:45:07;;;;;;;7.15;2.55;;;;;;;;;;5084173;28;20020;-83
2023/05/18 13:47:33;;;;;;;3.42;2.28;;;;;;;;;;5102232;28;20020;-83
2023/05/18 13:49:59;;;;;;;6.80;2.85;;;;;;;;;;5101455;28;20067;-83
2023/05/18 13:52:25;;;;;;;4.32;2.10;;;;;;;;;;5083212;28;20120;-82
2023/05/18 13:54:51;;;;;;;6.32;2.70;;;;;;;;;;5102142;28;20025;-83
2023/05/18 13:57:17;;;;;;;3.33;1.90;;;;;;;;;;5103347;28;20028;-83
2023/05/18 13:59:43;;;;;;;5.90;3.05;;;;;;;;;;5099641;28;20527;-83
2023/05/18 14:02:09;;;;;;;6.55;2.83;;;;;;;;;;5069917;28;20050;-83
2023/05/18 14:04:35;;;;;;;4.85;2.55;;;;;;;;;;5102555;28;20016;-83
2023/05/18 14:07:01;;;;;;;6.13;2.53;;;;;;;;;;5102347;28;20028;-83
2023/05/18 14:09:28;;;;;;;4.68;1.98;;;;;;;;;;5102971;28;20042;-83
2023/05/18 14:11:55;;;;;;;7.47;2.88;;;;;;;;;;5102911;28;20024;-83
2023/05/18 14:14:21;;;;;;;6.25;2.75;;;;;;;;;;5101707;28;20374;-82
2023/05/18 14:16:47;;;;;;;5.60;2.22;;;;;;;;;;5100599;28;20024;-82
2023/05/18 14:19:18;;;;;;;6.35;2.30;;;;;;;;;;5106545;28;20382;-83
2023/05/18 14:21:44;;;;;;;4.88;1.90;;;;;;;;;;5099395;28;20048;-82
2023/05/18 14:24:10;;;;;;;7.00;2.85;;;;;;;;;;5079906;28;20051;-81
2023/05/18 14:26:37;;;;;;;6.05;2.45;;;;;;;;;;5079973;28;20084;-81
2023/05/18 14:29:03;;;;;;;9.75;3.35;;;;;;;;;;5078907;28;20024;-81
2023/05/18 14:31:29;;;;;;;7.30;2.45;;;;;;;;;;5080657;28;20025;-81
2023/05/18 14:33:55;;;;;;;6.45;2.88;;;;;;;;;;5078790;28;20032;-81
2023/05/18 14:36:21;;;;;;;8.55;2.47;;;;;;;;;;5080070;28;20023;-81
2023/05/18 14:38:47;;;;;;;6.40;2.22;;;;;;;;;;5080689;28;20021;-79
2023/05/18 14:41:13;;;;;;;7.40;3.17;;;;;;;;;;5088141;28;20051;-83